Rechercher aéroport 
image banner adimage banner ad
image banner ad

SV110 - Heliplataforma Ps3

Situé à Peninsula De Paraguana, Venezuela

ICAO - , IATA -

Données fournies par Airmate  

Information générale

Coordonnées: N11°57'37" W70°32'16"
Élévation : feet MSL.
 
Voir autres Aéroports à Apure

Données opérationnelles

Accessible au public
Heure actuelle UTC:
Heure actuelle locale:
TAF: TAF SVJC 051600Z 0512/0612 09004KT 9999 SCT016 TX34/0518Z TN24/0508Z BECMG 0512/0516 12003KT 9999 BKN016
Voir NOTAMs / SUP AIP / TFR affectant cet aéroport [VIEW]
Fréquences de communication: [VIEW]

Pistes:

Coordonnées de l'aéroport

Adresse: Peninsula De Paraguana Venezuela

Vue satellite de SV110